createdAt,value
2022-10-19T00:01:22.116Z,96897.70
2022-10-19T00:03:53.476Z,96899.34
2022-10-19T00:06:27.098Z,96898.84
2022-10-19T00:09:00.835Z,96899.45
2022-10-19T00:11:30.502Z,96899.65
2022-10-19T00:14:00.044Z,96895.58
2022-10-19T00:16:31.841Z,96895.27
2022-10-19T00:19:02.677Z,96893.73
2022-10-19T00:21:30.922Z,96891.24
2022-10-19T00:23:59.233Z,96890.73
2022-10-19T00:26:27.453Z,96896.64
2022-10-19T00:28:56.737Z,96901.15
2022-10-19T00:31:25.615Z,96898.80
2022-10-19T00:33:55.636Z,96902.52
2022-10-19T00:36:29.898Z,96901.36
2022-10-19T00:38:58.993Z,96896.65
2022-10-19T00:41:29.864Z,96894.91
2022-10-19T00:44:07.003Z,96891.74
2022-10-19T00:46:38.034Z,96889.84
2022-10-19T00:49:20.510Z,96885.52
2022-10-19T00:52:04.492Z,96886.34
2022-10-19T00:54:33.951Z,96883.13
2022-10-19T00:57:04.533Z,96877.25
2022-10-19T00:59:33.443Z,96880.42
2022-10-19T01:02:03.500Z,96879.83
2022-10-19T01:04:34.774Z,96880.80
2022-10-19T01:07:05.406Z,96878.07
2022-10-19T01:09:33.706Z,96868.02
2022-10-19T01:12:13.665Z,96866.48
2022-10-19T01:15:05.843Z,96859.09
2022-10-19T01:18:00.782Z,96859.08
2022-10-19T01:21:00.472Z,96856.75
2022-10-19T01:23:47.079Z,96856.41
2022-10-19T01:26:21.122Z,96857.55
2022-10-19T01:29:01.065Z,96859.26
2022-10-19T01:31:46.599Z,96858.41
2022-10-19T01:34:32.929Z,96860.84
2022-10-19T01:37:13.359Z,96857.39
2022-10-19T01:39:59.748Z,96856.25
2022-10-19T01:42:36.005Z,96853.80
2022-10-19T01:45:12.220Z,96852.20
2022-10-19T01:47:54.024Z,96850.00
2022-10-19T01:50:46.501Z,96843.89
2022-10-19T01:53:18.054Z,96846.83
2022-10-19T01:55:50.695Z,96843.83
2022-10-19T01:58:25.787Z,96843.07
2022-10-19T02:00:57.162Z,96837.23
2022-10-19T02:03:27.544Z,96834.54
2022-10-19T02:05:57.214Z,96833.29
2022-10-19T02:08:32.019Z,96829.39
2022-10-19T02:11:01.987Z,96831.79
2022-10-19T02:13:31.736Z,96834.94
2022-10-19T02:16:03.763Z,96833.56
2022-10-19T02:18:37.681Z,96834.89
2022-10-19T02:21:07.358Z,96838.66
2022-10-19T02:23:36.222Z,96839.18
2022-10-19T02:26:04.785Z,96835.30
2022-10-19T02:28:33.439Z,96838.60
2022-10-19T02:31:02.159Z,96831.29
2022-10-19T02:33:31.788Z,96826.36
2022-10-19T02:36:00.414Z,96820.08
2022-10-19T02:38:28.900Z,96817.02
2022-10-19T02:41:24.461Z,96817.18
2022-10-19T02:44:02.230Z,96813.30
2022-10-19T02:49:10.406Z,96811.36
2022-10-19T02:51:41.518Z,96820.84
2022-10-19T02:54:09.493Z,96821.67
2022-10-19T02:56:37.438Z,96820.05
2022-10-19T02:59:05.459Z,96822.41
2022-10-19T03:01:33.324Z,96822.39
2022-10-19T03:04:01.326Z,96818.02
2022-10-19T03:06:29.351Z,96815.30
2022-10-19T03:08:57.513Z,96813.23
2022-10-19T03:11:26.162Z,96822.93
2022-10-19T03:13:54.065Z,96822.51
2022-10-19T03:16:22.493Z,96820.09
2022-10-19T03:18:50.837Z,96817.73
2022-10-19T03:21:21.077Z,96814.74
2022-10-19T03:23:49.080Z,96815.44
2022-10-19T03:26:18.215Z,96813.71
2022-10-19T03:28:46.345Z,96812.33
2022-10-19T03:31:14.373Z,96809.70
2022-10-19T03:33:42.406Z,96812.83
2022-10-19T03:36:28.261Z,96814.11
2022-10-19T03:38:58.880Z,96815.07
2022-10-19T03:41:29.615Z,96812.34
2022-10-19T03:43:58.282Z,96814.98
2022-10-19T03:46:27.185Z,96812.23
2022-10-19T03:48:55.772Z,96811.16
2022-10-19T03:51:26.779Z,96806.13
2022-10-19T03:53:58.046Z,96797.47
2022-10-19T03:56:28.445Z,96791.97
2022-10-19T03:58:58.500Z,96795.41
2022-10-19T04:01:41.968Z,96795.69
2022-10-19T04:04:13.187Z,96796.34
2022-10-19T04:06:43.897Z,96797.68
2022-10-19T04:09:15.595Z,96794.63
2022-10-19T04:11:43.635Z,96792.73
2022-10-19T04:14:19.225Z,96791.29
2022-10-19T04:16:55.143Z,96792.95
2022-10-19T04:19:23.110Z,96795.15
2022-10-19T04:21:51.779Z,96795.59
2022-10-19T04:24:19.901Z,96792.06
2022-10-19T04:26:52.660Z,96789.60
2022-10-19T04:29:25.064Z,96789.32
2022-10-19T04:31:56.128Z,96784.32
2022-10-19T04:34:24.425Z,96785.73
2022-10-19T04:36:53.540Z,96785.66
2022-10-19T04:39:21.662Z,96786.67
2022-10-19T04:41:49.647Z,96788.34
2022-10-19T04:44:17.705Z,96787.05
2022-10-19T04:46:45.943Z,96782.13
2022-10-19T04:49:16.410Z,96783.13
2022-10-19T04:51:47.970Z,96786.60
2022-10-19T04:54:16.042Z,96781.08
2022-10-19T04:56:44.138Z,96785.91
2022-10-19T04:59:12.280Z,96786.03
2022-10-19T05:01:46.398Z,96781.64
2022-10-19T05:04:15.606Z,96786.25
2022-10-19T05:06:43.653Z,96785.31
2022-10-19T05:09:11.675Z,96781.67
2022-10-19T05:11:39.963Z,96781.00
2022-10-19T05:14:08.072Z,96782.61
2022-10-19T05:16:36.163Z,96786.13
2022-10-19T05:19:04.416Z,96788.46
2022-10-19T05:21:33.187Z,96782.29
2022-10-19T05:24:01.188Z,96779.23
2022-10-19T05:26:30.423Z,96782.45
2022-10-19T05:29:04.752Z,96786.06
2022-10-19T05:31:34.206Z,96782.83
2022-10-19T05:34:04.245Z,96782.67
2022-10-19T05:36:40.128Z,96789.45
2022-10-19T05:39:12.452Z,96794.58
2022-10-19T05:41:43.160Z,96794.12
2022-10-19T05:44:16.997Z,96792.94
2022-10-19T05:46:45.508Z,96795.28
2022-10-19T05:49:15.302Z,96796.79
2022-10-19T05:51:43.959Z,96795.87
2022-10-19T05:54:13.024Z,96797.64
2022-10-19T05:56:42.909Z,96793.10
2022-10-19T05:59:15.461Z,96794.48
2022-10-19T06:01:43.636Z,96791.17
2022-10-19T06:04:14.237Z,96795.38
2022-10-19T06:06:43.202Z,96797.56
2022-10-19T06:09:12.265Z,96794.88
2022-10-19T06:11:43.003Z,96798.02
2022-10-19T06:14:13.844Z,96797.27
2022-10-19T06:16:42.430Z,96799.62
2022-10-19T06:19:10.730Z,96801.37
2022-10-19T06:21:41.820Z,96800.02
2022-10-19T06:24:13.402Z,96805.98
2022-10-19T06:26:41.463Z,96804.34
2022-10-19T06:29:09.825Z,96801.52
2022-10-19T06:31:38.500Z,96806.05
2022-10-19T06:34:06.895Z,96803.31
2022-10-19T06:36:42.240Z,96807.09
2022-10-19T06:50:11.594Z,96805.02
2022-10-19T06:52:42.700Z,96812.27
2022-10-19T06:55:12.633Z,96815.28
2022-10-19T06:57:40.724Z,96812.11
2022-10-19T07:00:09.379Z,96812.38
2022-10-19T07:02:37.734Z,96813.15
2022-10-19T07:05:07.274Z,96819.57
2022-10-19T07:07:37.013Z,96821.05
2022-10-19T07:10:05.886Z,96826.45
2022-10-19T07:12:34.369Z,96831.65
2022-10-19T07:15:02.892Z,96838.05
2022-10-19T07:17:31.424Z,96835.79
2022-10-19T07:19:59.876Z,96838.98
2022-10-19T07:22:28.459Z,96845.29
2022-10-19T07:24:58.338Z,96846.16
2022-10-19T07:27:26.484Z,96849.34
2022-10-19T07:29:54.645Z,96850.88
2022-10-19T07:32:22.753Z,96851.56
2022-10-19T07:34:50.760Z,96848.96
2022-10-19T07:37:18.797Z,96845.52
2022-10-19T07:39:47.076Z,96844.15
2022-10-19T07:42:15.126Z,96854.71
2022-10-19T07:44:43.228Z,96846.80
2022-10-19T07:47:11.306Z,96850.86
2022-10-19T07:49:40.119Z,96848.18
2022-10-19T07:52:08.260Z,96843.40
2022-10-19T07:54:36.588Z,96844.89
2022-10-19T07:57:04.736Z,96837.92
2022-10-19T07:59:32.826Z,96836.89
2022-10-19T08:02:04.601Z,96841.38
2022-10-19T08:07:20.766Z,96841.33
2022-10-19T08:09:53.151Z,96842.23
2022-10-19T08:12:22.136Z,96844.39
2022-10-19T08:14:50.541Z,96843.29
2022-10-19T08:17:18.597Z,96841.45
2022-10-19T08:19:47.310Z,96841.77
2022-10-19T08:22:15.670Z,96844.27
2022-10-19T08:24:43.780Z,96845.02
2022-10-19T08:27:12.048Z,96848.55
2022-10-19T08:29:40.295Z,96843.65
2022-10-19T08:32:08.599Z,96844.22
2022-10-19T08:34:37.622Z,96842.96
2022-10-19T08:37:14.879Z,96842.57
2022-10-19T08:39:57.573Z,96839.71
2022-10-19T08:42:42.373Z,96840.89
2022-10-19T08:45:24.812Z,96840.14
2022-10-19T08:47:59.347Z,96845.27
2022-10-19T08:50:36.748Z,96844.46
2022-10-19T08:53:14.471Z,96845.06
2022-10-19T08:56:39.021Z,96845.84
2022-10-19T08:59:41.227Z,96846.02
2022-10-19T09:02:45.064Z,96848.10
2022-10-19T09:05:39.771Z,96847.67
2022-10-19T09:08:12.156Z,96846.27
2022-10-19T09:10:46.114Z,96838.83
2022-10-19T09:13:41.508Z,96833.88
2022-10-19T09:16:22.562Z,96837.56
2022-10-19T09:18:51.238Z,96834.64
2022-10-19T09:21:47.775Z,96837.36
2022-10-19T09:24:29.929Z,96836.01
2022-10-19T09:27:01.391Z,96840.80
2022-10-19T09:29:48.040Z,96837.77
2022-10-19T09:32:19.739Z,96847.14
2022-10-19T09:35:02.828Z,96844.66
2022-10-19T09:37:32.995Z,96846.27
2022-10-19T09:40:01.260Z,96836.70
2022-10-19T09:42:37.099Z,96839.20
2022-10-19T09:45:19.510Z,96842.63
2022-10-19T09:47:48.793Z,96844.13
2022-10-19T09:50:29.629Z,96841.22
2022-10-19T09:53:05.840Z,96847.95
2022-10-19T09:55:39.557Z,96852.85
2022-10-19T09:58:13.586Z,96854.78
2022-10-19T10:00:55.024Z,96848.20
2022-10-19T10:03:23.290Z,96848.02
2022-10-19T10:05:52.406Z,96846.38
2022-10-19T10:08:23.752Z,96840.63
2022-10-19T10:11:14.827Z,96848.23
2022-10-19T10:13:49.573Z,96845.55
2022-10-19T10:16:21.816Z,96840.40
2022-10-19T10:18:58.856Z,96844.72
2022-10-19T10:21:34.761Z,96836.30
2022-10-19T10:24:25.250Z,96838.67
2022-10-19T10:26:56.418Z,96831.59
2022-10-19T10:29:25.623Z,96832.72
2022-10-19T10:31:59.962Z,96839.39
2022-10-19T10:35:00.778Z,96845.69
2022-10-19T10:37:47.395Z,96846.65
2022-10-19T10:40:29.458Z,96844.63
2022-10-19T10:43:13.046Z,96847.86
2022-10-19T10:45:46.955Z,96848.39
2022-10-19T10:48:23.700Z,96844.90
2022-10-19T10:50:53.173Z,96845.98
2022-10-19T10:53:34.593Z,96852.02
2022-10-19T10:56:05.588Z,96851.40
2022-10-19T10:58:43.638Z,96849.23
2022-10-19T11:01:30.448Z,96852.40
2022-10-19T11:04:08.899Z,96851.55
2022-10-19T11:06:44.787Z,96857.70
2022-10-19T11:09:20.807Z,96857.29
2022-10-19T11:11:56.244Z,96854.66
2022-10-19T11:14:31.122Z,96852.31
2022-10-19T11:17:06.399Z,96851.12
2022-10-19T11:19:43.623Z,96847.70
2022-10-19T11:22:35.244Z,96850.24
2022-10-19T11:25:21.523Z,96848.84
2022-10-19T11:28:14.376Z,96849.05
2022-10-19T11:31:05.704Z,96846.64
2022-10-19T11:34:04.659Z,96845.17
2022-10-19T11:36:50.412Z,96840.11
2022-10-19T11:39:18.394Z,96833.70
2022-10-19T11:42:18.253Z,96831.70
2022-10-19T11:45:11.417Z,96828.70
2022-10-19T11:48:00.689Z,96829.55
2022-10-19T11:50:58.923Z,96825.27
2022-10-19T11:53:45.850Z,96831.58
2022-10-19T11:56:39.403Z,96833.36
2022-10-19T11:59:37.753Z,96836.95
2022-10-19T12:02:44.799Z,96830.23
2022-10-19T12:05:35.874Z,96823.52
2022-10-19T12:08:09.758Z,96817.05
2022-10-19T12:10:45.857Z,96813.65
2022-10-19T12:13:17.081Z,96808.71
2022-10-19T12:15:49.976Z,96807.55
2022-10-19T12:18:36.985Z,96806.11
2022-10-19T12:21:11.914Z,96801.69
2022-10-19T12:23:44.149Z,96800.65
2022-10-19T12:28:51.210Z,96804.27
2022-10-19T12:31:19.893Z,96805.60
2022-10-19T12:34:00.541Z,96807.58
2022-10-19T12:37:06.215Z,96807.48
2022-10-19T12:40:10.136Z,96804.35
2022-10-19T12:43:31.016Z,96805.94
2022-10-19T12:46:15.112Z,96808.85
2022-10-19T12:48:43.720Z,96808.77
2022-10-19T12:51:15.151Z,96809.07
2022-10-19T12:53:49.162Z,96808.53
2022-10-19T12:56:24.370Z,96812.04
2022-10-19T12:59:00.066Z,96814.05
2022-10-19T13:01:44.331Z,96815.74
2022-10-19T13:04:24.925Z,96815.05
2022-10-19T13:07:02.587Z,96817.41
2022-10-19T13:09:42.928Z,96812.02
2022-10-19T13:12:17.666Z,96811.89
2022-10-19T13:15:01.573Z,96814.60
2022-10-19T13:17:38.460Z,96811.77
2022-10-19T13:20:15.782Z,96811.13
2022-10-19T13:22:51.247Z,96820.97
2022-10-19T13:25:21.944Z,96821.02
2022-10-19T13:28:17.852Z,96822.07
2022-10-19T13:30:48.371Z,96816.97
2022-10-19T13:33:25.691Z,96822.30
2022-10-19T13:36:00.046Z,96824.11
2022-10-19T13:39:03.118Z,96824.96
2022-10-19T13:41:34.306Z,96824.17
2022-10-19T13:44:20.544Z,96825.98
2022-10-19T13:46:51.674Z,96824.21
2022-10-19T13:49:43.556Z,96829.98
2022-10-19T13:53:07.249Z,96831.98
2022-10-19T13:56:07.087Z,96829.68
2022-10-19T13:59:10.398Z,96826.57
2022-10-19T14:01:59.989Z,96823.95
2022-10-19T14:04:48.643Z,96819.10
2022-10-19T14:07:25.641Z,96819.75
2022-10-19T14:10:18.277Z,96821.35
2022-10-19T14:12:47.510Z,96818.94
2022-10-19T14:15:18.653Z,96818.18
2022-10-19T14:17:46.707Z,96813.95
2022-10-19T14:20:27.376Z,96814.46
2022-10-19T14:22:55.798Z,96816.17
2022-10-19T14:25:29.491Z,96819.75
2022-10-19T14:28:06.869Z,96817.68
2022-10-19T14:30:36.342Z,96817.04
2022-10-19T14:33:11.260Z,96809.34
2022-10-19T14:35:45.135Z,96810.84
2022-10-19T14:38:20.645Z,96812.33
2022-10-19T14:40:48.711Z,96815.34
2022-10-19T14:43:30.327Z,96814.42
2022-10-19T14:46:07.241Z,96814.12
2022-10-19T14:48:41.347Z,96812.45
2022-10-19T14:51:47.246Z,96813.48
2022-10-19T14:54:29.277Z,96821.92
2022-10-19T14:57:29.223Z,96821.30
2022-10-19T15:00:00.542Z,96827.58
2022-10-19T15:02:38.916Z,96828.08
2022-10-19T15:05:20.607Z,96829.02
2022-10-19T15:07:49.429Z,96831.64
2022-10-19T15:10:24.648Z,96831.05
2022-10-19T15:13:01.235Z,96829.73
2022-10-19T15:15:34.865Z,96836.13
2022-10-19T15:18:04.998Z,96836.51
2022-10-19T15:20:44.146Z,96841.64
2022-10-19T15:23:41.289Z,96844.09
2022-10-19T15:26:22.380Z,96841.40
2022-10-19T15:28:50.629Z,96843.56
2022-10-19T15:31:20.662Z,96842.29
2022-10-19T15:33:54.884Z,96845.36
2022-10-19T15:36:24.564Z,96846.27
2022-10-19T15:39:18.293Z,96845.94
2022-10-19T15:41:53.415Z,96845.60
2022-10-19T15:44:33.726Z,96846.59
2022-10-19T15:47:23.349Z,96845.48
2022-10-19T15:49:54.482Z,96842.40
2022-10-19T15:52:23.909Z,96835.23
2022-10-19T15:54:54.875Z,96844.48
2022-10-19T15:57:30.175Z,96846.42
2022-10-19T16:00:00.687Z,96850.03
2022-10-19T16:02:28.971Z,96852.61
2022-10-19T16:04:57.018Z,96853.88
2022-10-19T16:07:28.467Z,96861.42
2022-10-19T16:09:57.512Z,96867.89
2022-10-19T16:12:26.913Z,96868.95
2022-10-19T16:14:55.490Z,96874.83
2022-10-19T16:17:23.704Z,96883.25
2022-10-19T16:19:51.938Z,96882.59
2022-10-19T16:22:20.976Z,96888.59
2022-10-19T16:24:49.151Z,96890.31
2022-10-19T16:27:17.192Z,96887.88
2022-10-19T16:29:45.174Z,96887.92
2022-10-19T16:32:13.299Z,96888.54
2022-10-19T16:34:41.525Z,96886.48
2022-10-19T16:37:09.552Z,96888.65
2022-10-19T16:39:37.769Z,96888.78
2022-10-19T16:42:05.837Z,96891.08
2022-10-19T16:44:33.904Z,96891.02
2022-10-19T16:47:01.917Z,96886.63
2022-10-19T16:49:30.544Z,96892.78
2022-10-19T16:51:58.592Z,96895.96
2022-10-19T16:54:27.015Z,96900.39
2022-10-19T16:56:55.815Z,96906.80
2022-10-19T16:59:23.972Z,96920.30
2022-10-19T17:01:52.423Z,96921.50
2022-10-19T17:04:20.649Z,96926.42
2022-10-19T17:06:48.627Z,96924.60
2022-10-19T17:09:40.807Z,96931.45
2022-10-19T17:12:05.780Z,96945.38
2022-10-19T17:14:35.303Z,96947.85
2022-10-19T17:17:03.590Z,96948.55
2022-10-19T17:19:32.086Z,96953.99
2022-10-19T17:22:02.005Z,96951.10
2022-10-19T17:24:31.320Z,96955.73
2022-10-19T17:27:03.470Z,96960.41
2022-10-19T17:29:31.513Z,96959.00
2022-10-19T17:31:59.592Z,96955.91
2022-10-19T17:34:27.658Z,96962.47
2022-10-19T17:36:55.781Z,96964.19
2022-10-19T17:39:29.914Z,96966.27
2022-10-19T17:42:02.001Z,96964.50
2022-10-19T17:44:31.759Z,96970.86
2022-10-19T17:47:01.325Z,96970.02
2022-10-19T17:49:30.077Z,96972.38
2022-10-19T17:51:58.786Z,96977.66
2022-10-19T17:54:27.062Z,96974.08
2022-10-19T17:56:55.481Z,96976.91
2022-10-19T17:59:34.891Z,96975.56
2022-10-19T18:02:04.862Z,96981.35
2022-10-19T18:04:32.988Z,96980.73
2022-10-19T18:07:01.026Z,96985.07
2022-10-19T18:09:28.960Z,96990.59
2022-10-19T18:11:56.927Z,96990.02
2022-10-19T18:14:24.870Z,96994.41
2022-10-19T18:16:52.768Z,96996.06
2022-10-19T18:19:20.865Z,96995.52
2022-10-19T18:21:49.343Z,96996.36
2022-10-19T18:24:21.441Z,96996.60
2022-10-19T18:26:51.286Z,96997.84
2022-10-19T18:29:22.444Z,96998.23
2022-10-19T18:31:52.930Z,97000.70
2022-10-19T18:34:24.816Z,97001.15
2022-10-19T18:36:53.846Z,97002.39
2022-10-19T18:39:22.260Z,97001.74
2022-10-19T18:41:54.575Z,97005.40
2022-10-19T18:44:26.569Z,97004.02
2022-10-19T18:46:57.068Z,97009.90
2022-10-19T18:49:25.839Z,97006.29
2022-10-19T18:51:55.660Z,97009.07
2022-10-19T18:54:26.559Z,97011.05
2022-10-19T18:56:55.425Z,97011.18
2022-10-19T18:59:23.522Z,97014.47
2022-10-19T19:01:52.681Z,97011.61
2022-10-19T19:04:20.760Z,97010.17
2022-10-19T19:06:48.741Z,97011.75
2022-10-19T19:09:19.078Z,97017.98
2022-10-19T19:11:47.377Z,97020.98
2022-10-19T19:14:18.623Z,97025.49
2022-10-19T19:16:46.816Z,97026.30
2022-10-19T19:19:17.536Z,97033.50
2022-10-19T19:21:45.843Z,97031.82
2022-10-19T19:24:16.401Z,97030.98
2022-10-19T19:26:48.487Z,97033.52
2022-10-19T19:29:17.653Z,97035.58
2022-10-19T19:31:45.819Z,97036.02
2022-10-19T19:34:14.384Z,97031.46
2022-10-19T19:36:47.502Z,97038.48
2022-10-19T19:39:20.206Z,97043.81
2022-10-19T19:41:49.865Z,97046.55
2022-10-19T19:44:19.239Z,97047.54
2022-10-19T19:46:48.001Z,97050.89
2022-10-19T19:49:16.408Z,97052.16
2022-10-19T19:51:44.537Z,97054.64
2022-10-19T19:54:12.689Z,97058.78
2022-10-19T19:56:42.512Z,97059.74
2022-10-19T19:59:12.392Z,97061.92
2022-10-19T20:01:40.882Z,97059.98
2022-10-19T20:04:10.001Z,97064.27
2022-10-19T20:06:39.608Z,97070.50
2022-10-19T20:09:11.520Z,97071.90
2022-10-19T20:11:43.964Z,97076.40
2022-10-19T20:14:12.728Z,97080.08
2022-10-19T20:16:41.214Z,97086.52
2022-10-19T20:19:12.725Z,97085.59
2022-10-19T20:21:41.330Z,97085.50
2022-10-19T20:24:10.082Z,97087.02
2022-10-19T20:26:38.220Z,97087.60
2022-10-19T20:29:06.832Z,97091.35
2022-10-19T20:31:39.645Z,97092.74
2022-10-19T20:34:14.114Z,97091.70
2022-10-19T20:36:42.332Z,97096.30
2022-10-19T20:39:10.822Z,97093.98
2022-10-19T20:41:39.159Z,97091.06
2022-10-19T20:44:07.410Z,97090.95
2022-10-19T20:46:37.248Z,97088.02
2022-10-19T20:49:07.515Z,97091.63
2022-10-19T20:51:37.019Z,97090.59
2022-10-19T20:54:12.152Z,97091.14
2022-10-19T20:56:41.552Z,97092.02
2022-10-19T20:59:17.644Z,97094.05
2022-10-19T21:01:49.653Z,97093.70
2022-10-19T21:04:18.253Z,97096.72
2022-10-19T21:06:48.683Z,97097.75
2022-10-19T21:09:20.397Z,97099.55
2022-10-19T21:11:50.518Z,97100.83
2022-10-19T21:14:25.263Z,97099.18
2022-10-19T21:17:00.370Z,97099.95
2022-10-19T21:19:30.099Z,97101.56
2022-10-19T21:22:04.073Z,97099.14
2022-10-19T21:24:34.991Z,97104.08
2022-10-19T21:27:07.681Z,97108.10
2022-10-19T21:29:37.148Z,97108.27
2022-10-19T21:32:05.508Z,97111.05
2022-10-19T21:34:33.538Z,97109.13
2022-10-19T21:37:01.462Z,97108.91
2022-10-19T21:39:29.448Z,97107.45
2022-10-19T21:41:58.136Z,97104.69
2022-10-19T21:44:26.154Z,97101.70
2022-10-19T21:46:54.297Z,97102.72
2022-10-19T21:49:22.386Z,97103.60
2022-10-19T21:51:53.841Z,97101.39
2022-10-19T21:54:25.413Z,97103.50
2022-10-19T21:56:55.992Z,97103.37
2022-10-19T21:59:24.824Z,97100.86
2022-10-19T22:01:54.770Z,97102.36
2022-10-19T22:04:23.637Z,97100.87
2022-10-19T22:06:51.796Z,97102.33
2022-10-19T22:09:21.900Z,97103.77
2022-10-19T22:11:49.854Z,97104.88
2022-10-19T22:14:18.408Z,97109.58
2022-10-19T22:16:46.708Z,97108.58
2022-10-19T22:19:14.864Z,97105.92
2022-10-19T22:21:42.908Z,97108.98
2022-10-19T22:24:14.179Z,97111.06
2022-10-19T22:26:45.892Z,97112.40
2022-10-19T22:29:14.269Z,97108.52
2022-10-19T22:31:42.314Z,97110.34
2022-10-19T22:34:16.065Z,97113.05
2022-10-19T22:36:44.518Z,97114.98
2022-10-19T22:39:13.604Z,97122.02
2022-10-19T22:41:41.787Z,97119.06
2022-10-19T22:44:09.950Z,97116.77
2022-10-19T22:46:37.945Z,97115.14
2022-10-19T22:49:06.145Z,97116.65
2022-10-19T22:51:34.253Z,97114.93
2022-10-19T22:54:02.229Z,97116.27
2022-10-19T22:56:30.294Z,97116.11
2022-10-19T22:59:00.245Z,97114.70
2022-10-19T23:01:29.352Z,97117.63
2022-10-19T23:03:57.351Z,97118.30
2022-10-19T23:06:27.052Z,97122.36
2022-10-19T23:08:55.308Z,97122.67
2022-10-19T23:11:23.981Z,97125.23
2022-10-19T23:13:51.926Z,97130.98
2022-10-19T23:16:20.248Z,97131.83
2022-10-19T23:18:48.579Z,97131.05
2022-10-19T23:21:16.751Z,97132.59
2022-10-19T23:23:44.887Z,97136.78
2022-10-19T23:26:17.927Z,97133.45
2022-10-19T23:28:48.155Z,97133.27
2022-10-19T23:31:19.249Z,97135.45
2022-10-19T23:33:47.377Z,97138.21
2022-10-19T23:36:18.181Z,97141.71
2022-10-19T23:38:47.839Z,97149.19
2022-10-19T23:41:16.665Z,97149.95
2022-10-19T23:43:45.014Z,97150.21
2022-10-19T23:46:13.776Z,97147.61
2022-10-19T23:48:42.368Z,97147.55
2022-10-19T23:51:13.842Z,97144.55
2022-10-19T23:53:44.282Z,97143.95
2022-10-19T23:56:23.924Z,97143.88
2022-10-19T23:58:51.987Z,97144.20
